W2CJS Weather Reports


Display with metric or nautical units.
time (UTC)temp
F
wind
direction
speed
MPH
gust
MPH
rain 1hr
in
rain 24hr
in
rain mn
in
humidity
%
barometer
mb
20211022184012 49 224 1.0 8.0 0.00 0.25 0.25 72 1011.7
20211022183012 50 286 1.0 8.0 0.00 0.25 0.25 74 1011.7
20211022182011 49 216 2.0 6.0 0.00 0.25 0.25 75 1011.7
20211022181011 48 220 4.0 14.0 0.00 0.25 0.25 72 1011.7
20211022180012 48 236 3.0 9.0 0.00 0.25 0.25 75 1011.9
20211022175012 48 242 3.0 8.0 0.00 0.25 0.25 75 1011.7
20211022174012 48 236 3.0 10.0 0.00 0.25 0.25 74 1011.7
20211022173012 48 214 3.0 9.0 0.00 0.25 0.25 76 1011.6
20211022172012 49 239 3.0 8.0 0.00 0.26 0.25 75 1011.5
20211022171012 48 240 4.0 9.0 0.00 0.26 0.25 74 1011.7
20211022170012 48 230 4.0 11.0 0.00 0.26 0.25 75 1011.6
20211022165012 47 227 4.0 8.0 0.00 0.26 0.25 81 1011.5
20211022164012 47 269 3.0 7.0 0.00 0.26 0.25 82 1011.4
20211022163012 47 254 3.0 10.0 0.00 0.26 0.25 87 1011.3
20211022162012 47 220 5.0 10.0 0.00 0.26 0.25 87 1011.3
20211022161011 46 219 4.0 11.0 0.00 0.26 0.25 89 1011.2
20211022160011 46 232 3.0 8.0 0.00 0.26 0.25 90 1011.1
20211022155011 46 264 2.0 6.0 0.00 0.27 0.25 92 1011.1
20211022154012 46 214 2.0 6.0 0.00 0.27 0.25 93 1011.1
20211022153012 45 225 2.0 4.0 0.00 0.27 0.25 93 1010.9
20211022152011 45 310 2.0 6.0 0.00 0.27 0.25 94 1010.9
20211022151012 45 323 1.0 4.0 0.00 0.27 0.25 94 1010.7
20211022150012 45 298 1.0 4.0 0.00 0.27 0.25 94 1010.6
20211022145012 45 325 0.0 5.0 0.00 0.27 0.25 94 1010.5
20211022144012 45 273 0.0 3.0 0.00 0.27 0.25 95 1010.4
20211022143012 45 251 1.0 6.0 0.00 0.27 0.25 94 1010.4
20211022142011 44 303 2.0 5.0 0.00 0.27 0.25 94 1010.4
20211022141012 45 323 2.0 6.0 0.00 0.27 0.25 93 1010.2
20211022140011 46 235 2.0 7.0 0.00 0.27 0.25 93 1010.0
20211022135012 46 234 2.0 6.0 0.00 0.27 0.25 94 1009.9
20211022134012 46 257 2.0 10.0 0.00 0.29 0.25 94 1009.8
20211022133011 46 253 2.0 5.0 0.00 0.32 0.25 93 1009.6
20211022132012 46 240 2.0 7.0 0.00 0.35 0.25 94 1009.5
20211022131012 46 295 1.0 5.0 0.00 0.35 0.25 94 1009.3
20211022130012 46 261 1.0 5.0 0.00 0.35 0.25 93 1009.2
20211022125011 47 201 2.0 7.0 0.00 0.35 0.25 93 1009.0
20211022124011 47 282 1.0 6.0 0.01 0.35 0.25 93 1008.6
20211022123012 48 273 1.0 5.0 0.01 0.35 0.25 93 1008.3
20211022122011 48 226 1.0 3.0 0.01 0.35 0.25 93 1008.0
20211022121011 49 210 2.0 8.0 0.01 0.35 0.25 93 1007.7
20211022120011 50 220 2.0 7.0 0.01 0.35 0.25 94 1007.4
20211022115012 51 217 3.0 9.0 0.03 0.35 0.25 93 1007.0
20211022114011 51 264 3.0 10.0 0.02 0.34 0.24 93 1006.5
20211022113011 52 299 3.0 12.0 0.02 0.34 0.24 93 1006.3
20211022112011 53 263 1.0 6.0 0.02 0.34 0.24 94 1006.0
20211022111012 53 225 2.0 7.0 0.02 0.34 0.24 94 1005.6
20211022110011 54 212 4.0 15.0 0.03 0.34 0.24 94 1005.2
20211022105011 54 217 5.0 11.0 0.01 0.32 0.22 94 1005.1
20211022104012 54 212 5.0 11.0 0.01 0.32 0.22 94 1004.9
20211022103011 54 217 5.0 10.0 0.01 0.32 0.22 95 1004.8
20211022102011 54 212 5.0 9.0 0.01 0.32 0.22 95 1004.7
20211022101011 54 209 5.0 11.0 0.01 0.32 0.22 95 1004.6
20211022100011 54 208 4.0 8.0 0.00 0.31 0.21 95 1004.6
20211022095011 54 219 3.0 7.0 0.00 0.31 0.21 95 1004.4
20211022094011 54 210 4.0 9.0 0.00 0.31 0.21 95 1004.4
20211022093012 54 214 4.0 10.0 0.00 0.31 0.21 95 1004.4
20211022092011 54 209 4.0 10.0 0.00 0.31 0.21 95 1004.2
20211022091012 54 210 4.0 10.0 0.00 0.31 0.21 95 1004.2
20211022090012 54 204 4.0 11.0 0.00 0.31 0.21 95 1004.0
20211022085012 54 209 4.0 12.0 0.00 0.31 0.21 95 1004.0
20211022084012 54 216 3.0 7.0 0.00 0.31 0.21 95 1003.9
20211022083011 54 228 2.0 5.0 0.00 0.31 0.21 95 1003.9
20211022082012 54 213 4.0 9.0 0.00 0.31 0.21 95 1003.9
20211022081012 54 221 4.0 8.0 0.01 0.31 0.21 95 1003.8
20211022080011 54 221 4.0 10.0 0.02 0.31 0.21 95 1003.8
20211022075011 54 216 5.0 10.0 0.04 0.31 0.21 95 1003.7
20211022074011 54 221 4.0 7.0 0.05 0.31 0.21 96 1003.6
20211022073011 54 219 4.0 9.0 0.05 0.31 0.21 95 1003.4
20211022072012 54 213 4.0 11.0 0.06 0.31 0.21 95 1003.4
20211022071011 54 217 4.0 11.0 0.07 0.30 0.20 96 1003.5
20211022070011 54 212 4.0 8.0 0.07 0.29 0.19 96 1003.9
20211022065011 54 220 2.0 6.0 0.06 0.27 0.17 96 1004.3
20211022064011 54 218 2.0 4.0 0.08 0.26 0.16 96 1004.2
20211022063011 54 233 2.0 5.0 0.11 0.26 0.16 96 1004.3
20211022062012 54 214 3.0 6.0 0.13 0.25 0.15 96 1004.2
20211022060011 54 220 2.0 6.0 0.12 0.22 0.12 96 1004.3
20211022055012 54 218 3.0 7.0 0.11 0.21 0.11 96 1004.7
20211022054012 54 220 2.0 6.0 0.08 0.18 0.08 96 1004.6
20211022053011 54 210 3.0 8.0 0.05 0.15 0.05 97 1004.6
20211022052011 53 199 0.0 5.0 0.02 0.12 0.02 97 1005.0
20211022051011 52 0 0.0 0.0 0.00 0.10 0.00 97 1005.1
20211022050011 52 0 0.0 0.0 0.00 0.10 0.00 96 1004.9
20211022045011 52 0 0.0 0.0 0.00 0.10 0.00 96 1004.9
20211022044011 52 0 0.0 0.0 0.00 0.10 0.00 96 1004.9
20211022043011 52 0 0.0 0.0 0.00 0.10 0.00 96 1004.9
20211022042011 52 0 0.0 0.0 0.00 0.10 0.00 96 1004.9
20211022041011 53 158 0.0 4.0 0.00 0.10 0.00 96 1005.0
20211022040012 53 102 0.0 2.0 0.00 0.10 0.00 96 1005.3
20211022035011 53 310 0.0 2.0 0.00 0.10 0.10 96 1005.5
20211022034012 52 0 0.0 0.0 0.00 0.10 0.10 96 1005.3
20211022033011 52 0 0.0 0.0 0.00 0.10 0.10 96 1005.4
20211022032011 53 0 0.0 0.0 0.00 0.10 0.10 95 1005.7
20211022031011 53 0 0.0 0.0 0.00 0.10 0.10 95 1006.2
20211022030011 53 0 0.0 0.0 0.00 0.10 0.10 94 1006.5
20211022025011 54 0 0.0 0.0 0.00 0.10 0.10 94 1006.6
20211022024011 54 0 0.0 0.0 0.00 0.10 0.10 94 1006.9
20211022023011 54 0 0.0 0.0 0.00 0.10 0.10 93 1007.1
20211022022011 55 192 0.0 1.0 0.00 0.10 0.10 92 1007.2
20211022021011 55 202 1.0 5.0 0.00 0.10 0.10 92 1007.4
20211022020011 55 209 2.0 6.0 0.00 0.10 0.10 93 1007.5
20211022015011 54 208 2.0 6.0 0.00 0.10 0.10 97 1007.5
20211022014011 52 220 0.0 1.0 0.00 0.10 0.10 97 1007.5
20211022013011 52 0 0.0 0.0 0.00 0.10 0.10 96 1007.2
20211022012011 52 0 0.0 0.0 0.00 0.10 0.10 96 1007.1
20211022011011 52 0 0.0 0.0 0.00 0.10 0.10 96 1007.3
20211022010011 52 0 0.0 0.0 0.00 0.10 0.10 96 1007.5
20211022005011 52 0 0.0 0.0 0.00 0.10 0.10 96 1007.7
20211022004011 52 0 0.0 0.0 0.00 0.10 0.10 96 1007.7
20211022003011 52 0 0.0 0.0 0.00 0.10 0.10 96 1007.8
20211022002011 52 0 0.0 0.0 0.00 0.10 0.10 96 1007.9
20211022001011 52 0 0.0 0.0 0.00 0.10 0.10 96 1008.1
20211022000011 52 49 0.0 1.0 0.00 0.10 0.10 96 1008.2
20211021235011 52 0 0.0 0.0 0.00 0.10 0.10 95 1008.0
20211021234011 52 0 0.0 0.0 0.00 0.10 0.10 95 1008.1
20211021233011 52 0 0.0 0.0 0.00 0.10 0.10 95 1008.1
20211021232011 53 0 0.0 0.0 0.00 0.10 0.10 95 1007.9
20211021231011 52 238 0.0 3.0 0.00 0.10 0.10 96 1007.7
20211021230011 52 0 0.0 0.0 0.00 0.10 0.10 95 1007.7
20211021225011 52 0 0.0 0.0 0.00 0.10 0.10 95 1007.8
20211021224011 53 0 0.0 0.0 0.00 0.10 0.10 95 1008.4
20211021223011 53 0 0.0 0.0 0.00 0.10 0.10 95 1008.6
20211021222011 54 0 0.0 0.0 0.00 0.10 0.10 95 1008.8
20211021221011 54 0 0.0 0.0 0.00 0.10 0.10 94 1008.9
20211021220011 55 0 0.0 0.0 0.00 0.10 0.10 94 1008.9
20211021215011 56 0 0.0 0.0 0.00 0.10 0.10 94 1008.7
20211021214011 56 0 0.0 0.0 0.00 0.10 0.10 93 1008.8
20211021213011 56 0 0.0 0.0 0.00 0.10 0.10 93 1009.1
20211021212011 57 0 0.0 0.0 0.00 0.10 0.10 93 1009.1
20211021211011 57 0 0.0 0.0 0.00 0.10 0.10 93 1009.1
20211021210011 57 0 0.0 0.0 0.00 0.10 0.10 93 1009.2
20211021205011 58 0 0.0 0.0 0.00 0.10 0.10 92 1009.2
20211021204011 58 0 0.0 0.0 0.00 0.10 0.10 93 1009.2
20211021203011 58 0 0.0 0.0 0.00 0.10 0.10 92 1009.2
20211021202011 59 0 0.0 0.0 0.00 0.10 0.10 92 1009.2
20211021201011 59 0 0.0 0.0 0.00 0.10 0.10 91 1009.3
20211021200011 59 0 0.0 0.0 0.00 0.10 0.10 89 1009.3
20211021195011 59 208 0.0 2.0 0.00 0.10 0.10 86 1009.4
20211021194011 59 208 0.0 4.0 0.00 0.10 0.10 83 1009.5
20211021193011 59 0 0.0 0.0 0.00 0.10 0.10 86 1009.7
20211021192011 58 200 0.0 2.0 0.00 0.10 0.10 87 1009.7
20211021191011 58 200 0.0 1.0 0.00 0.10 0.10 89 1009.9
20211021190011 58 0 0.0 0.0 0.00 0.10 0.10 89 1010.0
20211021185011 58 0 0.0 0.0 0.00 0.10 0.10 93 1010.3